Flight Track Log - Related Links

Times and Time Zones

All times are in EDT time to prevent confusion due to time zone crossing. See the GLA34K flight status page for this flight to view local times or setup timezone preferences in your user account.

Time Position Orientation Groundspeed Altitude Reporting Facility
EDT Latitude Longitude Course Direction KTS MPH feet Rate Location/Type
Mon 02:35:00 PM 46.3302 -102.9426 155° Southeast  Level Estimated
Mon 02:36:00 PM 46.2524 -102.9658 155° Southeast  Level Estimated
Mon 02:36:14 PM 46.6569 -102.6828 156° South 191 220 8,300  Level Minneapolis Center
Mon 02:37:00 PM 46.2307 -102.8552 106° East  Level FlightAware Approximate
Mon 02:37:16 PM 46.6064 -102.6489 155° Southeast 196 226 10,200  Level Minneapolis Center
Mon 02:38:00 PM 46.2089 -102.7447 106° East  Level FlightAware Approximate
Mon 02:38:18 PM 46.5397 -102.6197 163° South 201 231 12,400  Level Minneapolis Center
Mon 02:39:00 PM 46.1315 -102.7709 157° South  Level Estimated
Mon 02:39:20 PM 46.4814 -102.6033 169° South 209 241 14,700  Level Minneapolis Center
Mon 02:40:00 PM 46.0978 -102.6670 115° Southeast  Level FlightAware Approximate
Mon 02:40:22 PM 46.4250 -102.5761 162° South 212 244 16,200  Level Minneapolis Center
Mon 02:41:00 PM 46.0206 -102.6946 156° South  Level Estimated
Mon 02:42:00 PM 46.3124 -102.4693 155° Southeast  Level FlightAware Approximate
Mon 02:43:28 PM 46.2333 -102.5258 156° South 238 274 20,000  Level Minneapolis Center
Mon 02:45:00 PM 46.1551 -102.3881 129° Southeast  Level FlightAware Approximate
Mon 02:45:32 PM 46.0925 -102.4794 129° Southeast 244 281 22,400  Level Minneapolis Center
Mon 02:46:34 PM 46.0264 -102.4542 165° South 246 283 23,300 852 Climbing Minneapolis Center
Mon 02:48:00 PM 45.9197 -102.4968 156° South  Level Estimated
Mon 02:49:00 PM 45.7972 -102.1421 156° South  Level FlightAware Approximate
Mon 02:50:42 PM 45.7583 -102.3014 93° East 249 287 26,800  Level Minneapolis Center
Mon 02:52:00 PM 45.6551 -102.3264 197° South  Level FlightAware Approximate
Mon 02:52:46 PM 45.6272 -102.2789 197° South 263 303 28,000  Level Minneapolis Center
Mon 02:53:48 PM 45.5417 -102.3228 200° South 271 312 28,200 65 Climbing Minneapolis Center
Mon 02:55:00 PM 45.3985 -102.7025 157° South  Level Estimated
Mon 02:55:52 PM 45.3786 -102.3722 192° South 298 343 28,200  Level Minneapolis Center
Mon 02:56:00 PM 45.3946 -102.5926 93° East  Level FlightAware Approximate
Mon 02:58:19 PM 45.1806 -102.4400 194° South 307 353 28,200  Level Denver Center
Mon 02:58:58 PM 45.1322 -102.4608 197° South 307 353 28,200  Level Minneapolis Center
Mon 03:00:01 PM 45.0344 -102.5053 198° South 309 356 28,200  Level Minneapolis Center
Mon 03:01:03 PM 44.9539 -102.5469 200° South 308 354 28,200  Level Minneapolis Center
Mon 03:02:26 PM 44.8469 -102.6122 203° Southwest 302 348 28,200  Level Denver Center
Mon 03:03:28 PM 44.7725 -102.6647 207° Southwest 301 346 28,200  Level Denver Center
Mon 03:04:30 PM 44.7008 -102.7181 208° Southwest 295 339 28,200  Level Denver Center
Mon 03:06:37 PM 44.5339 -102.8153 203° Southwest 294 338 28,200  Level Minneapolis Center
Mon 03:07:36 PM 44.4714 -102.8367 194° South 289 333 28,200  Level Denver Center
Mon 03:09:39 PM 44.2975 -102.8828 191° South 290 334 28,200  Level Denver Center
Mon 03:10:41 PM 44.2181 -102.9017 190° South 289 333 28,200  Level Denver Center
Mon 03:11:43 PM 44.1358 -102.9306 194° South 291 335 28,200 -24 Level Denver Center
Mon 03:14:00 PM 44.0465 -102.9673 196° South  Level FlightAware Approximate
Mon 03:14:48 PM 43.9061 -103.0528 196° South 291 335 28,100  Level Denver Center
Mon 03:16:00 PM 43.8152 -103.0709 188° South  Level FlightAware Approximate
Mon 03:16:52 PM 43.7383 -103.0819 188° South 290 334 28,100  Level Denver Center
Mon 03:17:54 PM 43.6486 -103.0914 184° South 288 331 28,100  Level Denver Center
Mon 03:18:55 PM 43.5719 -103.0972 183° South 288 331 28,100  Level Denver Center
Mon 03:19:57 PM 43.4964 -103.1086 186° South 286 329 28,100  Level Denver Center
Mon 03:20:59 PM 43.4094 -103.1286 189° South 283 326 28,100  Level Denver Center
Mon 03:22:01 PM 43.3339 -103.1456 189° South 286 329 28,100  Level Denver Center
Mon 03:23:03 PM 43.2472 -103.1636 189° South 283 326 28,100  Level Denver Center
Mon 03:25:00 PM 43.1002 -103.1990 190° South  Level FlightAware Approximate
Mon 03:25:06 PM 43.0856 -103.1933 190° South 281 323 28,100  Level Denver Center
Mon 03:26:08 PM 43.0094 -103.2047 189° South 284 327 28,100  Level Denver Center
Mon 03:27:10 PM 42.9336 -103.2150 186° South 285 328 28,100  Level Denver Center
Mon 03:29:00 PM 42.7981 -103.2707 189° South  Level FlightAware Approximate
Mon 03:31:00 PM 42.6586 -103.3761 200° South  Level Estimated
Mon 03:32:20 PM 42.5303 -103.3103 200° South 275 316 28,100  Level Denver Center
Mon 03:33:22 PM 42.4575 -103.3300 191° South 275 316 28,100  Level Denver Center
Mon 03:35:00 PM 42.3344 -103.3595 190° South  Level FlightAware Approximate
Mon 03:35:26 PM 42.3000 -103.3711 190° South 278 320 28,100  Level Denver Center
Mon 03:36:27 PM 42.2294 -103.3914 192° South 272 313 28,100 -469 Level Denver Center
Mon 03:38:00 PM 42.1536 -103.6192 200° South  Level Estimated
Mon 03:38:00 PM 42.1123 -103.4170 189° South  Level FlightAware Approximate
Mon 03:41:37 PM 41.8303 -103.4850 186° South 287 330 25,200  Level Denver Center
Mon 03:43:00 PM 41.7251 -103.5022 187° South  Level FlightAware Approximate
Mon 03:43:40 PM 41.6617 -103.5289 187° South 301 346 24,100  Level Denver Center
Mon 03:45:00 PM 41.5823 -103.5241 188° South  Level FlightAware Approximate
Mon 03:45:00 PM 41.5634 -103.5197 186° South  Level FlightAware Approximate
Mon 03:45:44 PM 41.5056 -103.5406 186° South 292 336 23,200  Level Denver Center
Mon 03:46:00 PM 41.5063 -103.5370 186° South  Level FlightAware Approximate
Mon 03:47:00 PM 41.4302 -103.5475 186° South  Level FlightAware Approximate
Mon 03:47:00 PM 41.4139 -103.5525 186° South  Level FlightAware Approximate
Mon 03:47:48 PM 41.3319 -103.5650 186° South 301 346 20,900  Level Denver Center
Mon 03:48:50 PM 41.2358 -103.5919 192° South 311 358 19,500 -1,232 Descending Denver Center
Mon 03:50:00 PM 41.1512 -103.5985 183° South  Level FlightAware Approximate
Mon 03:50:53 PM 41.0597 -103.6217 183° South 309 356 17,100  Level Denver Center
Mon 03:51:55 PM 40.9700 -103.6219 180° South 311 358 16,400 -484 Descending Denver Center
Mon 03:52:57 PM 40.8831 -103.6217 180° South 310 357 16,100 -73 Descending Denver Center
Mon 03:54:00 PM 40.8071 -103.6371 186° South  Level FlightAware Approximate
Mon 03:56:03 PM 40.6347 -103.6394 229° Southwest 290 334 16,100  Level Denver Center
Mon 03:58:06 PM 40.5144 -103.7817 222° Southwest 290 334 14,600 -876 Descending Denver Center
Mon 03:59:08 PM 40.4611 -103.8636 229° Southwest 293 337 13,400 -471 Descending Denver Center
Mon 04:01:00 PM 40.3842 -103.9487 229° Southwest  Level FlightAware Approximate
Mon 04:01:17 PM 40.3500 -104.0500 232° Southwest 279 321 13,100  Level Denver TRACON
Mon 04:02:13 PM 40.3000 -104.1092 222° Southwest 277 319 13,100  Level Denver Center
Mon 04:03:15 PM 40.2386 -104.1814 222° Southwest 276 318 13,100  Level Denver Center
Mon 04:05:11 PM 40.1167 -104.3000 217° Southwest 282 325 13,100  Level Denver TRACON
Mon 04:06:05 PM 40.0667 -104.3667 226° Southwest 282 325 13,100  Level Denver TRACON
Mon 04:06:21 PM 40.0550 -104.3850 230° Southwest 281 323 13,100  Level Denver Center
Mon 04:07:22 PM 39.9969 -104.4542 222° Southwest 282 325 13,100 -404 Level Denver Center
Mon 04:08:05 PM 39.9667 -104.5000 229° Southwest 262 302 12,400 -699 Descending Denver TRACON
Mon 04:10:05 PM 39.8500 -104.5000 180° South 250 288 11,200 -500 Descending Denver TRACON
Mon 04:11:05 PM 39.7833 -104.5000 180° South 254 292 10,900 -565 Descending Denver TRACON
Mon 04:11:30 PM 39.7572 -104.4925 168° South 249 287 10,400 -1,200 Descending Denver Center
Mon 04:13:05 PM 39.6667 -104.5000 184° South 229 264 8,500 -1,122 Descending Denver TRACON
Mon 04:13:33 PM 39.6544 -104.5408 249° West 235 270 8,100 -467 Descending Denver Center
Mon 04:14:35 PM 39.6683 -104.6186 283° West 229 264 7,800 -484 Descending Denver Center
Mon 04:15:37 PM 39.7225 -104.6436 340° North 218 251 7,100 -649 Descending Denver Center
Mon 04:17:40 PM 39.8211 -104.6425 360° North 182 209 5,800 -634 Descending Denver Center
Mon 04:19:00 PM 39.8500 -104.6667 320° Northwest  Level FlightAware Approximate
Mon 04:26:00 PM 39.8617 -104.6732 320° Northwest  Level Estimated

Login

Don't have an account? Register now (free) for customized features, flight alerts, and more!